Terminal Aerodrome Forecast
Issued by NWS Detroit/Pontiac, MI

Home | Current Version | Previous Version | Text Only | Print | Product List | Glossary On
Versions: 1 2 3 4 5 6 7 8 9 10 11 12 13 14 15 16 17 18 19 20 21 22 23 24 25 26 27 28
000
FTUS43 KDTX 272320
TAFDTW
TAF
KDTW 272320Z 2800/2906 33013KT P6SM SCT030 OVC045
     FM280300 30008KT P6SM SCT050 BKN200
     FM281400 22006KT P6SM OVC120
     FM281900 19008KT 6SM -SN BKN040 OVC080
     FM282200 17006KT 2SM -SN BR BKN018 OVC040
     FM290300 19011KT P6SM SCT028 OVC040=

USA.gov is the U.S. government's official web portal to all federal, state and local government web resources and services.